Time;durP1;ratioP1;P1;durP2;ratioP2;P2;SDS_P1;SDS_P2;PMS_P1;PMS_P2;Temp;Humidity;BMP_temperature;BMP_pressure;BME280_temperature;BME280_humidity;BME280_pressure;Samples;Min_cycle;Max_cycle;Signal;HPM_P1;HPM_P2
2021/04/26 00:02:14;;;;;;;7.03;5.70;;;6.80;77.20;;;;;;6249561;22;20089;-94
2021/04/26 00:04:42;;;;;;;6.70;5.35;;;6.80;76.60;;;;;;6248380;22;20008;-95
2021/04/26 00:07:08;;;;;;;10.50;5.97;;;6.70;76.30;;;;;;6248359;22;20022;-95
2021/04/26 00:09:36;;;;;;;7.80;6.35;;;6.70;76.30;;;;;;6249125;22;20282;-94
2021/04/26 00:12:02;;;;;;;7.68;5.65;;;6.70;76.30;;;;;;6247688;22;20000;-93
2021/04/26 00:14:28;;;;;;;7.20;5.72;;;6.60;76.30;;;;;;6248322;22;20042;-95
2021/04/26 00:16:54;;;;;;;5.68;5.05;;;6.60;76.70;;;;;;6248230;22;20069;-96
2021/04/26 00:19:20;;;;;;;6.18;5.55;;;6.50;76.80;;;;;;6248929;22;20005;-94
2021/04/26 00:21:45;;;;;;;6.65;5.63;;;6.50;76.70;;;;;;6247863;22;20008;-94
2021/04/26 00:24:14;;;;;;;9.48;6.10;;;6.50;76.80;;;;;;6249235;22;20000;-95
2021/04/26 00:26:43;;;;;;;8.07;6.20;;;6.50;76.80;;;;;;6247812;22;20004;-95
2021/04/26 00:29:08;;;;;;;7.45;6.15;;;6.50;77.10;;;;;;6248050;22;20370;-94
2021/04/26 00:31:37;;;;;;;7.45;5.75;;;6.50;76.80;;;;;;6248041;22;20042;-95
2021/04/26 00:34:05;;;;;;;8.27;6.40;;;6.40;76.90;;;;;;6221870;23;20324;-94
2021/04/26 00:36:33;;;;;;;6.78;5.28;;;6.40;77.00;;;;;;6249371;22;20070;-94
2021/04/26 00:38:59;;;;;;;7.88;5.10;;;6.40;77.60;;;;;;6248127;22;20000;-95
2021/04/26 00:41:25;;;;;;;6.40;5.53;;;6.40;77.20;;;;;;6248050;22;20416;-95
2021/04/26 00:43:51;;;;;;;8.23;4.95;;;6.40;77.30;;;;;;6247963;22;20003;-95
2021/04/26 00:46:17;;;;;;;7.00;5.45;;;6.40;77.30;;;;;;6248107;22;20053;-95
2021/04/26 00:48:43;;;;;;;7.20;5.60;;;6.30;77.30;;;;;;6248119;22;20462;-95
2021/04/26 00:51:11;;;;;;;7.63;5.60;;;6.30;77.60;;;;;;6248164;22;20004;-94
2021/04/26 00:53:37;;;;;;;7.35;5.30;;;6.30;77.60;;;;;;6248245;22;20323;-95
2021/04/26 00:56:04;;;;;;;7.50;5.20;;;6.30;77.70;;;;;;6247981;22;20004;-94
2021/04/26 00:58:30;;;;;;;5.97;4.63;;;6.30;77.80;;;;;;6248289;22;20009;-95
2021/04/26 01:00:57;;;;;;;8.55;5.38;;;6.30;77.90;;;;;;6249100;22;20016;-95
2021/04/26 01:03:23;;;;;;;6.28;5.35;;;6.30;77.90;;;;;;6249305;22;19992;-95
2021/04/26 01:05:49;;;;;;;7.57;5.47;;;6.30;77.80;;;;;;6247808;22;20007;-95
2021/04/26 01:08:22;;;;;;;8.88;5.50;;;6.20;77.60;;;;;;6248219;22;20004;-95
2021/04/26 01:10:49;;;;;;;8.20;6.00;;;6.20;77.60;;;;;;6247550;23;20095;-95
2021/04/26 01:13:37;;;;;;;7.20;5.53;;;6.20;77.50;;;;;;6249103;22;20022;-94
2021/04/26 01:16:20;;;;;;;9.27;6.78;;;6.10;77.60;;;;;;6248273;23;20028;-94
2021/04/26 01:19:19;;;;;;;11.35;6.40;;;6.10;77.60;;;;;;6248375;23;20027;-94
2021/04/26 01:22:16;;;;;;;7.35;5.60;;;6.00;77.50;;;;;;6249396;22;20032;-94
2021/04/26 01:25:00;;;;;;;10.13;7.50;;;6.00;77.70;;;;;;6248239;23;20319;-95
2021/04/26 01:27:46;;;;;;;10.25;7.43;;;5.90;77.70;;;;;;6247619;23;20023;-94
2021/04/26 01:30:37;;;;;;;10.95;7.38;;;5.90;78.00;;;;;;6247560;22;20004;-94
2021/04/26 01:33:11;;;;;;;10.45;6.35;;;5.90;78.10;;;;;;6249374;22;20087;-95
2021/04/26 01:35:38;;;;;;;9.18;6.18;;;5.90;78.10;;;;;;6249107;22;19999;-94
2021/04/26 01:38:28;;;;;;;10.23;7.15;;;5.90;78.20;;;;;;6248169;22;20327;-95
2021/04/26 01:40:58;;;;;;;9.30;6.47;;;5.90;78.30;;;;;;6247226;23;20008;-94
2021/04/26 01:43:28;;;;;;;8.70;6.93;;;5.80;78.10;;;;;;6248080;22;20039;-94
2021/04/26 01:45:58;;;;;;;10.85;8.43;;;5.80;78.00;;;;;;6247491;23;20542;-96
2021/04/26 01:48:35;;;;;;;13.48;9.00;;;5.80;77.90;;;;;;6247332;22;20008;-95
2021/04/26 01:51:03;;;;;;;14.68;10.13;;;5.80;77.90;;;;;;6248044;23;20011;-95
2021/04/26 01:53:29;;;;;;;15.10;9.63;;;5.70;78.10;;;;;;6247392;22;20004;-94
2021/04/26 01:56:05;;;;;;;13.85;9.23;;;5.70;78.10;;;;;;6247287;22;20000;-95
2021/04/26 01:58:31;;;;;;;19.58;11.82;;;5.70;78.30;;;;;;6247373;23;20065;-95
2021/04/26 02:01:00;;;;;;;14.32;10.35;;;5.70;78.50;;;;;;6247434;22;20019;-95
2021/04/26 02:03:27;;;;;;;17.17;11.48;;;5.70;78.50;;;;;;6247420;22;20000;-95
2021/04/26 02:05:55;;;;;;;20.08;12.60;;;5.70;78.50;;;;;;6250046;22;20412;-95
2021/04/26 02:08:22;;;;;;;25.30;15.13;;;5.70;78.60;;;;;;6268000;22;20000;-94
2021/04/26 02:10:48;;;;;;;26.00;17.13;;;5.70;78.80;;;;;;6273156;22;19999;-94
2021/04/26 02:13:19;;;;;;;22.40;14.95;;;5.70;78.90;;;;;;6275118;22;19989;-92
2021/04/26 02:15:47;;;;;;;34.38;20.67;;;5.80;79.00;;;;;;6274708;22;20018;-95
2021/04/26 02:18:15;;;;;;;25.40;17.75;;;5.70;79.30;;;;;;6274584;22;19988;-94
2021/04/26 02:20:54;;;;;;;22.80;16.52;;;5.70;79.10;;;;;;6274546;22;19988;-95
2021/04/26 02:23:23;;;;;;;23.23;15.13;;;5.70;79.20;;;;;;6265444;22;20011;-95
2021/04/26 02:25:54;;;;;;;22.27;15.20;;;5.70;79.10;;;;;;6247151;22;20058;-94
2021/04/26 02:28:22;;;;;;;22.38;15.15;;;5.70;79.10;;;;;;6247812;23;20054;-95
2021/04/26 02:30:53;;;;;;;23.52;14.93;;;5.70;79.10;;;;;;6247236;22;20086;-94
2021/04/26 02:33:43;;;;;;;32.20;19.13;;;5.70;79.20;;;;;;6248227;23;20087;-94
2021/04/26 02:36:25;;;;;;;39.70;23.95;;;5.70;79.30;;;;;;6247760;23;20042;-95
2021/04/26 02:38:53;;;;;;;37.22;21.48;;;5.70;79.10;;;;;;6247321;23;20003;-94
2021/04/26 02:41:24;;;;;;;32.40;19.73;;;5.70;79.20;;;;;;6246640;22;20004;-94
2021/04/26 02:43:53;;;;;;;30.50;18.88;;;5.70;79.20;;;;;;6247883;23;20008;-94
2021/04/26 02:46:23;;;;;;;29.25;17.35;;;5.70;79.10;;;;;;6249098;22;20000;-94
2021/04/26 02:48:53;;;;;;;27.73;19.25;;;5.80;79.20;;;;;;6248761;22;20000;-94
2021/04/26 02:51:22;;;;;;;28.65;18.05;;;5.80;79.20;;;;;;6246806;22;20008;-95
2021/04/26 02:53:54;;;;;;;21.38;15.73;;;5.80;79.20;;;;;;6248080;22;20001;-95
2021/04/26 02:56:21;;;;;;;26.73;17.25;;;5.80;79.20;;;;;;6247222;23;20488;-94
2021/04/26 02:58:53;;;;;;;20.92;15.15;;;5.80;79.90;;;;;;6247324;22;20416;-94
2021/04/26 03:01:22;;;;;;;27.75;17.65;;;5.80;79.70;;;;;;6247611;23;20020;-95
2021/04/26 03:03:49;;;;;;;22.40;15.02;;;5.80;80.80;;;;;;6247267;22;20007;-95
2021/04/26 03:06:16;;;;;;;19.42;14.07;;;5.80;80.10;;;;;;6247182;22;20364;-95
2021/04/26 03:08:45;;;;;;;20.60;14.00;;;5.90;80.00;;;;;;6251427;22;19996;-95
2021/04/26 03:11:13;;;;;;;17.58;13.10;;;5.90;80.20;;;;;;6254555;22;20000;-95
2021/04/26 03:13:40;;;;;;;19.83;13.23;;;6.00;80.40;;;;;;6250811;22;20008;-95
2021/04/26 03:16:14;;;;;;;16.48;11.73;;;6.20;80.20;;;;;;6248258;22;20004;-95
2021/04/26 03:18:40;;;;;;;;;;;6.20;79.90;;;;;;6247893;23;20038;-95
2021/04/26 03:21:11;;;;;;;14.35;10.35;;;6.30;80.50;;;;;;6247203;22;19899;-95
2021/04/26 03:23:42;;;;;;;16.92;10.68;;;6.40;79.30;;;;;;6246744;22;20142;-95
2021/04/26 03:26:13;;;;;;;19.45;14.40;;;6.50;79.10;;;;;;6247456;23;20000;-95
2021/04/26 03:28:42;;;;;;;21.77;16.13;;;6.50;78.90;;;;;;6247165;23;20010;-95
2021/04/26 03:31:11;;;;;;;20.55;13.75;;;6.50;78.80;;;;;;6246665;22;20000;-95
2021/04/26 03:33:47;;;;;;;21.20;14.95;;;6.50;78.80;;;;;;6246902;22;20416;-94
2021/04/26 03:36:15;;;;;;;16.95;13.18;;;6.50;79.00;;;;;;6247002;23;20004;-95
2021/04/26 03:38:42;;;;;;;20.80;15.68;;;6.50;79.60;;;;;;6248025;22;20004;-95
2021/04/26 03:41:15;;;;;;;18.67;14.20;;;6.50;80.30;;;;;;6248039;22;20008;-94
2021/04/26 03:43:44;;;;;;;17.92;13.60;;;6.40;80.20;;;;;;6247539;23;20289;-95
2021/04/26 03:46:11;;;;;;;13.18;10.00;;;6.40;80.20;;;;;;6247014;22;20091;-94
2021/04/26 03:48:39;;;;;;;13.00;10.48;;;6.40;80.30;;;;;;6247178;22;20004;-94
2021/04/26 03:51:06;;;;;;;13.68;10.27;;;6.40;80.50;;;;;;6246597;22;20008;-94
2021/04/26 03:53:34;;;;;;;14.25;10.68;;;6.40;80.60;;;;;;6248207;22;20000;-95
2021/04/26 03:56:00;;;;;;;12.20;8.90;;;6.50;80.60;;;;;;6246927;22;20011;-94
2021/04/26 03:58:26;;;;;;;11.85;9.00;;;6.60;80.40;;;;;;6247013;22;20000;-96
2021/04/26 04:00:52;;;;;;;12.25;10.05;;;6.70;80.40;;;;;;6245816;22;20023;-94
2021/04/26 04:03:29;;;;;;;14.15;11.18;;;6.80;80.30;;;;;;6246605;22;20000;-95
2021/04/26 04:05:58;;;;;;;14.57;10.80;;;6.80;79.90;;;;;;6247052;23;20004;-95
2021/04/26 04:08:27;;;;;;;14.95;11.98;;;6.90;80.20;;;;;;6247573;22;20420;-94
2021/04/26 04:10:53;;;;;;;18.42;12.15;;;6.90;79.40;;;;;;6248681;22;20062;-95
2021/04/26 04:13:18;;;;;;;17.08;12.18;;;6.90;79.40;;;;;;6248786;22;20008;-95
2021/04/26 04:15:55;;;;;;;18.52;13.82;;;6.90;79.50;;;;;;6248641;22;20000;-94
2021/04/26 04:18:23;;;;;;;17.92;13.50;;;6.80;79.80;;;;;;6248488;23;20467;-95
2021/04/26 04:20:57;;;;;;;15.80;12.98;;;6.70;80.40;;;;;;6250925;22;20032;-96
2021/04/26 04:23:23;;;;;;;16.67;12.27;;;6.60;81.10;;;;;;6253246;23;20347;-94
2021/04/26 04:25:54;;;;;;;15.05;12.27;;;6.50;81.20;;;;;;6251707;22;20003;-95
2021/04/26 04:28:33;;;;;;;15.50;12.63;;;6.40;82.30;;;;;;6254945;23;20015;-94
2021/04/26 04:31:06;;;;;;;14.45;11.68;;;6.30;82.70;;;;;;6256763;23;20004;-94
2021/04/26 04:33:42;;;;;;;13.53;10.37;;;6.20;82.40;;;;;;6259139;23;20432;-95
2021/04/26 04:36:23;;;;;;;14.75;11.23;;;6.10;82.60;;;;;;6256776;23;20000;-95
2021/04/26 04:38:58;;;;;;;14.27;10.57;;;6.10;83.50;;;;;;6231972;23;20004;-95
2021/04/26 04:41:26;;;;;;;12.32;9.50;;;6.10;83.10;;;;;;6255814;23;20012;-94
2021/04/26 04:43:54;;;;;;;13.20;9.02;;;6.00;82.90;;;;;;6251369;22;20004;-95
2021/04/26 04:46:29;;;;;;;15.05;8.98;;;5.90;83.00;;;;;;6252377;22;20016;-95
2021/04/26 04:49:18;;;;;;;12.63;10.30;;;5.90;83.00;;;;;;6253231;23;20012;-95
2021/04/26 04:51:44;;;;;;;10.85;8.38;;;5.80;83.10;;;;;;6257011;22;20095;-93
2021/04/26 04:54:26;;;;;;;9.93;8.00;;;5.80;82.80;;;;;;6255697;22;20023;-95
2021/04/26 04:56:56;;;;;;;9.15;7.18;;;5.80;82.30;;;;;;6257937;23;20003;-95
2021/04/26 04:59:31;;;;;;;8.82;7.10;;;5.70;82.50;;;;;;6252941;22;20016;-95
2021/04/26 05:01:58;;;;;;;12.27;8.07;;;5.70;82.70;;;;;;6252610;22;20083;-95
2021/04/26 05:04:24;;;;;;;8.68;5.68;;;5.60;82.10;;;;;;6252428;22;20008;-94
2021/04/26 05:06:56;;;;;;;7.75;5.65;;;5.50;81.90;;;;;;6253065;22;20057;-95
2021/04/26 05:09:24;;;;;;;6.57;5.07;;;5.50;82.00;;;;;;6251507;23;20560;-95
2021/04/26 05:11:50;;;;;;;6.47;5.10;;;5.50;82.10;;;;;;6253293;22;20483;-95
2021/04/26 05:14:19;;;;;;;6.82;4.72;;;5.40;81.80;;;;;;6251970;22;20010;-95
2021/04/26 05:16:53;;;;;;;7.15;5.72;;;5.20;82.00;;;;;;6253857;23;20032;-96
2021/04/26 05:19:41;;;;;;;6.38;4.97;;;5.10;82.10;;;;;;6252161;23;20473;-96
2021/04/26 05:22:21;;;;;;;6.88;4.97;;;5.00;82.40;;;;;;6259263;22;20084;-95
2021/04/26 05:24:57;;;;;;;;;;;;;;;;;;;;;
2021/04/26 05:28:09;;;;;;;7.20;5.35;;;4.90;83.20;;;;;;6266702;23;20011;-95
2021/04/26 05:30:50;;;;;;;9.70;6.60;;;5.00;83.50;;;;;;6254535;23;20023;-95
2021/04/26 05:33:21;;;;;;;9.85;6.63;;;5.00;83.70;;;;;;6222169;23;19997;-96
2021/04/26 05:35:49;;;;;;;12.45;8.25;;;5.00;83.30;;;;;;6221676;23;20462;-95
2021/04/26 05:38:18;;;;;;;11.05;7.63;;;4.90;83.30;;;;;;6220902;23;20023;-93
2021/04/26 05:40:59;;;;;;;11.90;8.20;;;4.80;83.70;;;;;;6221038;23;20001;-95
2021/04/26 05:43:44;;;;;;;12.77;8.10;;;4.80;84.00;;;;;;6222218;23;20000;-95
2021/04/26 05:46:44;;;;;;;10.73;8.18;;;4.80;83.80;;;;;;6220442;23;20019;-95
2021/04/26 05:49:24;;;;;;;10.75;8.55;;;4.70;84.20;;;;;;6228285;23;20005;-96
2021/04/26 05:55:19;;;;;;;17.48;11.95;;;4.80;84.20;;;;;;6214797;23;20081;-96
2021/04/26 05:57:56;;;;;;;18.30;12.65;;;4.90;84.40;;;;;;6221535;23;20001;-96
2021/04/26 06:00:40;;;;;;;;;;;;;;;;;;;;;
2021/04/26 06:03:06;;;;;;;9.05;6.00;;;4.70;85.50;;;;;;6222525;23;20031;-95
2021/04/26 06:05:38;;;;;;;6.75;4.60;;;4.60;85.90;;;;;;6223192;23;20009;-95
2021/04/26 06:08:17;;;;;;;4.88;3.97;;;4.40;86.20;;;;;;6223902;23;20004;-96
2021/04/26 06:10:53;;;;;;;5.20;3.90;;;4.20;86.50;;;;;;6225340;23;20013;-96
2021/04/26 06:13:25;;;;;;;3.45;3.08;;;4.20;86.70;;;;;;6222563;23;20011;-95
2021/04/26 06:16:36;;;;;;;3.88;2.95;;;4.00;86.60;;;;;;6223617;23;20035;-95
2021/04/26 06:22:43;;;;;;;;;;;;;;;;;;;;;
2021/04/26 06:25:20;;;;;;;;;;;;;;;;;;;;;
2021/04/26 06:27:49;;;;;;;2.42;1.92;;;3.30;89.20;;;;;;6220304;23;20039;-95
2021/04/26 06:30:18;;;;;;;2.50;2.30;;;3.30;89.10;;;;;;6222341;23;20031;-94
2021/04/26 06:32:44;;;;;;;2.17;1.98;;;3.20;89.00;;;;;;6222789;23;20056;-95
2021/04/26 06:35:20;;;;;;;1.77;1.65;;;3.10;89.90;;;;;;6221806;23;20310;-94
2021/04/26 06:37:50;;;;;;;2.10;1.90;;;3.10;90.20;;;;;;6221036;23;20146;-95
2021/04/26 06:40:19;;;;;;;2.30;2.10;;;3.00;90.20;;;;;;6220948;23;20004;-95
2021/04/26 06:43:01;;;;;;;;;;;;;;;;;;;;;
2021/04/26 06:45:29;;;;;;;2.33;2.13;;;3.00;90.70;;;;;;6224743;23;20035;-94
2021/04/26 06:48:42;;;;;;;;;;;;;;;;;;;;;
2021/04/26 06:54:58;;;;;;;2.13;1.88;;;2.80;90.60;;;;;;6183805;23;20005;-95
2021/04/26 06:57:24;;;;;;;1.98;1.85;;;2.60;90.70;;;;;;6224789;23;20127;-95
2021/04/26 07:00:21;;;;;;;;;;;;;;;;;;;;;
2021/04/26 07:03:05;;;;;;;;;;;;;;;;;;;;;
2021/04/26 07:05:57;;;;;;;1.70;1.60;;;2.50;91.70;;;;;;6224843;23;20020;-95
2021/04/26 07:08:50;;;;;;;;;;;;;;;;;;;;;
2021/04/26 07:11:16;;;;;;;2.55;2.13;;;2.50;91.80;;;;;;6220509;23;20108;-94
2021/04/26 07:13:44;;;;;;;1.83;1.70;;;2.50;92.10;;;;;;6218668;23;20032;-96
2021/04/26 07:16:12;;;;;;;2.28;1.92;;;2.50;92.20;;;;;;6220934;23;20000;-95
2021/04/26 07:18:43;;;;;;;2.65;2.10;;;2.60;92.10;;;;;;6217981;23;20000;-95
2021/04/26 07:21:29;;;;;;;2.35;1.90;;;2.70;92.50;;;;;;6223287;23;20064;-93
2021/04/26 07:23:57;;;;;;;2.70;2.08;;;2.80;92.50;;;;;;6232511;23;20024;-92
2021/04/26 07:26:26;;;;;;;2.30;1.90;;;2.80;92.60;;;;;;6230844;23;20131;-92
2021/04/26 07:29:03;;;;;;;2.03;1.50;;;2.90;92.60;;;;;;6222044;23;20000;-94
2021/04/26 07:31:31;;;;;;;1.90;1.80;;;3.00;92.60;;;;;;6217452;23;20429;-94
2021/04/26 07:34:06;;;;;;;2.13;1.60;;;3.10;92.50;;;;;;6217247;23;20415;-95
2021/04/26 07:36:35;;;;;;;1.60;1.45;;;3.10;92.50;;;;;;6219234;23;20007;-94
2021/04/26 07:39:05;;;;;;;2.15;1.90;;;3.20;92.30;;;;;;6221685;23;20011;-94
2021/04/26 07:41:31;;;;;;;2.47;1.70;;;3.30;92.40;;;;;;6219955;23;20012;-95
2021/04/26 07:43:57;;;;;;;1.23;1.17;;;3.30;92.00;;;;;;6222598;23;20028;-96
2021/04/26 07:46:23;;;;;;;1.75;1.50;;;3.30;92.30;;;;;;6223764;23;20011;-94
2021/04/26 07:49:02;;;;;;;2.50;1.42;;;3.40;92.00;;;;;;6224248;23;19997;-95
2021/04/26 07:51:27;;;;;;;2.08;1.90;;;3.40;91.80;;;;;;6224826;23;20143;-95
2021/04/26 07:53:56;;;;;;;2.03;1.83;;;3.40;92.00;;;;;;6223169;23;20432;-95
2021/04/26 07:56:22;;;;;;;3.15;2.10;;;3.40;92.00;;;;;;6220079;23;20135;-96
2021/04/26 07:58:50;;;;;;;1.67;1.58;;;3.40;92.20;;;;;;6219195;23;20005;-95
2021/04/26 08:01:18;;;;;;;1.80;1.70;;;3.40;92.20;;;;;;6219456;23;20021;-96
2021/04/26 08:03:47;;;;;;;1.60;1.50;;;3.50;92.60;;;;;;6220170;23;20031;-96
2021/04/26 08:06:20;;;;;;;2.40;1.90;;;3.50;92.30;;;;;;6221733;23;20005;-96
2021/04/26 08:08:46;;;;;;;2.47;1.80;;;3.50;92.20;;;;;;6222923;23;20003;-96
2021/04/26 08:11:12;;;;;;;2.50;2.30;;;3.50;92.20;;;;;;6219982;23;20032;-96
2021/04/26 08:13:40;;;;;;;2.20;1.85;;;3.60;92.10;;;;;;6219118;23;20337;-95
2021/04/26 08:16:06;;;;;;;1.92;1.83;;;3.60;92.00;;;;;;6218742;23;20004;-95
2021/04/26 08:18:32;;;;;;;2.20;2.00;;;3.50;92.10;;;;;;6217775;23;19996;-95
2021/04/26 08:21:17;;;;;;;2.15;1.83;;;3.50;91.90;;;;;;6217649;23;20011;-96
2021/04/26 08:23:53;;;;;;;2.03;1.92;;;3.50;91.90;;;;;;6220809;23;20447;-96
2021/04/26 08:26:29;;;;;;;2.42;2.22;;;3.50;92.10;;;;;;6219505;23;19996;-96
2021/04/26 08:29:02;;;;;;;1.90;1.80;;;3.50;92.20;;;;;;6222463;23;19993;-96
2021/04/26 08:31:28;;;;;;;2.58;2.38;;;3.50;92.20;;;;;;6222142;23;20064;-96
2021/04/26 08:33:54;;;;;;;2.80;2.60;;;3.50;92.30;;;;;;6224603;23;20253;-96
2021/04/26 08:36:20;;;;;;;3.00;2.20;;;3.50;92.30;;;;;;6226857;23;20401;-95
2021/04/26 08:38:45;;;;;;;2.30;2.10;;;3.50;92.40;;;;;;6225966;23;20011;-94
2021/04/26 08:41:13;;;;;;;2.28;2.10;;;3.50;92.20;;;;;;6225737;23;20005;-95
2021/04/26 08:43:41;;;;;;;3.00;1.95;;;3.50;92.40;;;;;;6227446;23;20031;-95
2021/04/26 08:46:12;;;;;;;2.35;2.03;;;3.50;92.30;;;;;;6237507;23;20000;-96
2021/04/26 08:48:40;;;;;;;2.15;1.80;;;3.40;92.10;;;;;;6242302;23;20044;-96
2021/04/26 08:51:09;;;;;;;3.60;2.28;;;3.40;92.40;;;;;;6243022;23;20080;-95
2021/04/26 08:53:35;;;;;;;2.97;2.70;;;3.40;92.30;;;;;;6241408;23;19989;-95
2021/04/26 08:56:05;;;;;;;3.10;2.42;;;3.40;92.30;;;;;;6236769;23;20009;-96
2021/04/26 08:58:37;;;;;;;3.05;2.55;;;3.40;92.60;;;;;;6241773;23;20000;-93
2021/04/26 09:01:03;;;;;;;4.93;2.85;;;3.50;92.60;;;;;;6210320;23;20071;-96
2021/04/26 09:03:33;;;;;;;6.38;2.60;;;3.50;92.30;;;;;;6221305;23;20008;-96
2021/04/26 09:05:59;;;;;;;3.45;2.83;;;3.60;92.40;;;;;;6219698;23;20000;-94
2021/04/26 09:08:27;;;;;;;3.35;2.60;;;3.60;92.40;;;;;;6218433;23;20005;-94
2021/04/26 09:11:03;;;;;;;3.80;2.60;;;3.60;92.30;;;;;;6221931;23;20005;-93
2021/04/26 09:13:45;;;;;;;2.67;2.45;;;3.70;92.40;;;;;;6200009;23;20040;-92
2021/04/26 09:16:17;;;;;;;3.10;2.80;;;3.70;92.50;;;;;;6221038;23;19997;-91
2021/04/26 09:18:54;;;;;;;3.47;2.80;;;3.80;92.30;;;;;;6223940;23;20026;-93
2021/04/26 09:21:25;;;;;;;2.75;2.50;;;3.80;92.20;;;;;;6203080;23;20005;-93
2021/04/26 09:24:09;;;;;;;4.03;3.13;;;3.90;92.00;;;;;;6197187;23;20020;-94
2021/04/26 09:26:35;;;;;;;;;;;4.00;91.70;;;;;;6194467;23;20333;-92
2021/04/26 09:29:16;;;;;;;2.45;2.25;;;4.00;91.10;;;;;;6196762;23;19900;-91
2021/04/26 09:31:57;;;;;;;3.90;2.70;;;4.20;91.90;;;;;;6195410;23;20009;-92
2021/04/26 09:34:35;;;;;;;4.50;2.90;;;4.30;91.70;;;;;;6190853;23;20053;-91
2021/04/26 09:37:16;;;;;;;3.22;2.80;;;4.40;91.40;;;;;;6187499;23;20395;-90
2021/04/26 09:40:04;;;;;;;2.90;2.63;;;4.50;91.80;;;;;;6186269;23;20082;-90
2021/04/26 09:42:46;;;;;;;2.63;2.42;;;4.50;90.20;;;;;;6187329;23;20008;-91
2021/04/26 09:45:24;;;;;;;3.03;2.53;;;4.50;90.20;;;;;;6187615;23;19997;-91
2021/04/26 09:48:07;;;;;;;3.80;2.38;;;4.60;90.90;;;;;;6189435;23;20475;-92
2021/04/26 09:50:48;;;;;;;2.45;2.25;;;4.60;90.70;;;;;;6187444;23;20325;-90
2021/04/26 09:53:14;;;;;;;2.97;2.60;;;4.70;90.20;;;;;;6186384;23;20005;-92
2021/04/26 09:55:39;;;;;;;2.28;2.08;;;4.80;90.20;;;;;;6186120;23;19997;-91
2021/04/26 09:58:05;;;;;;;2.42;1.83;;;4.90;89.20;;;;;;6185431;23;20035;-91
2021/04/26 10:00:31;;;;;;;2.30;2.10;;;5.00;89.00;;;;;;6153198;23;20013;-91
2021/04/26 10:03:05;;;;;;;2.85;2.42;;;5.20;90.40;;;;;;6156659;23;20056;-91
2021/04/26 10:05:31;;;;;;;2.65;2.40;;;5.40;87.30;;;;;;6157926;23;20009;-91
2021/04/26 10:07:58;;;;;;;3.13;2.00;;;5.60;89.20;;;;;;6157466;23;20092;-90
2021/04/26 10:10:29;;;;;;;5.32;3.00;;;5.70;86.10;;;;;;6156436;23;20088;-90
2021/04/26 10:12:55;;;;;;;2.30;2.10;;;5.90;87.00;;;;;;6155731;23;20010;-91
2021/04/26 10:15:26;;;;;;;2.28;2.08;;;6.00;86.60;;;;;;6130471;23;20057;-89
2021/04/26 10:17:55;;;;;;;2.50;2.30;;;6.30;86.10;;;;;;6157428;23;20009;-89
2021/04/26 10:20:34;;;;;;;3.15;2.10;;;6.40;85.20;;;;;;6155834;23;19997;-92
2021/04/26 10:23:00;;;;;;;2.40;2.10;;;6.60;85.30;;;;;;6156463;23;20021;-91
2021/04/26 10:25:41;;;;;;;3.35;2.50;;;6.70;83.90;;;;;;6156602;23;19998;-92
2021/04/26 10:28:39;;;;;;;2.78;1.90;;;6.90;81.70;;;;;;6155923;23;20025;-91
2021/04/26 10:31:13;;;;;;;3.80;2.10;;;7.00;78.80;;;;;;6076508;23;20001;-91
2021/04/26 10:37:29;;;;;;;3.00;2.20;;;7.00;76.00;;;;;;6160318;23;20013;-91
2021/04/26 10:40:20;;;;;;;;;;;;;;;;;;;;;
2021/04/26 10:43:54;;;;;;;3.88;2.65;;;7.00;80.10;;;;;;6165869;23;20033;-92
2021/04/26 10:46:27;;;;;;;1.60;1.50;;;7.10;75.00;;;;;;6113969;23;20033;-92
2021/04/26 10:49:08;;;;;;;2.10;1.90;;;7.10;77.40;;;;;;6164437;23;20011;-93
2021/04/26 10:51:43;;;;;;;1.98;1.75;;;7.00;77.60;;;;;;6169633;23;20010;-93
2021/04/26 10:54:42;;;;;;;;;;;;;;;;;;;;;
2021/04/26 10:58:15;;;;;;;2.40;1.98;;;7.20;80.70;;;;;;6172925;23;20009;-93
2021/04/26 11:01:17;;;;;;;1.95;1.85;;;7.30;73.10;;;;;;6182517;23;20044;-92
2021/04/26 11:04:05;;;;;;;1.85;1.70;;;7.30;77.70;;;;;;6210387;23;20013;-93
2021/04/26 11:06:39;;;;;;;3.33;2.35;;;7.30;74.70;;;;;;6182677;23;20005;-94
2021/04/26 11:09:47;;;;;;;2.38;1.75;;;7.30;75.60;;;;;;6209891;23;20003;-92
2021/04/26 11:12:48;;;;;;;4.00;1.90;;;7.20;74.70;;;;;;6210349;23;20019;-92
2021/04/26 11:15:37;;;;;;;3.10;1.98;;;7.20;73.10;;;;;;6193825;23;20001;-93
2021/04/26 11:18:18;;;;;;;2.30;1.83;;;7.10;76.40;;;;;;6230827;23;20019;-92
2021/04/26 11:28:02;;;;;;;2.75;2.17;;;7.30;76.70;;;;;;6242783;23;20003;-93
2021/04/26 11:30:34;;;;;;;2.88;2.20;;;7.20;73.20;;;;;;6204646;23;20009;-92
2021/04/26 11:33:48;;;;;;;1.90;1.80;;;7.30;77.90;;;;;;6202179;23;20017;-94
2021/04/26 11:36:33;;;;;;;;;;;;;;;;;;;;;
2021/04/26 11:47:00;;;;;;;2.58;1.98;;;7.90;71.90;;;;;;5830635;24;20018;-93
2021/04/26 11:53:07;;;;;;;1.85;1.75;;;7.80;74.30;;;;;;5888312;24;20100;-92
2021/04/26 11:55:41;;;;;;;2.67;2.15;;;7.70;74.90;;;;;;5994046;23;20351;-91
2021/04/26 11:58:07;;;;;;;;;;;7.80;73.80;;;;;;6071990;23;20039;-91
2021/04/26 12:00:34;;;;;;;6.03;2.28;;;7.70;68.90;;;;;;6187927;23;19934;-93
2021/04/26 12:03:06;;;;;;;3.67;2.08;;;7.80;75.60;;;;;;6201531;23;20064;-92
2021/04/26 12:05:32;;;;;;;2.08;1.80;;;7.90;72.30;;;;;;6196202;23;19996;-91
2021/04/26 12:07:58;;;;;;;2.03;1.83;;;7.90;72.70;;;;;;6194196;23;20360;-91
2021/04/26 12:10:26;;;;;;;2.20;2.00;;;8.00;74.00;;;;;;6192575;23;20001;-92
2021/04/26 12:13:00;;;;;;;2.90;2.25;;;8.20;73.20;;;;;;6191543;23;20004;-92
2021/04/26 12:15:26;;;;;;;;;;;8.30;73.60;;;;;;6194920;23;20439;-92
2021/04/26 12:17:59;;;;;;;2.47;1.70;;;8.40;70.10;;;;;;6192081;23;19904;-91
2021/04/26 12:20:46;;;;;;;3.33;1.88;;;8.60;74.60;;;;;;6193682;23;20005;-92
2021/04/26 12:23:17;;;;;;;1.98;1.77;;;8.80;73.10;;;;;;6193457;23;20023;-93
2021/04/26 12:25:48;;;;;;;2.20;2.00;;;8.90;71.20;;;;;;6193817;23;20047;-92
2021/04/26 12:28:14;;;;;;;1.90;1.80;;;8.80;70.40;;;;;;6193485;23;20005;-91
2021/04/26 12:30:44;;;;;;;3.90;2.03;;;8.70;70.70;;;;;;6192919;23;20004;-92
2021/04/26 12:33:21;;;;;;;2.45;2.13;;;8.70;72.70;;;;;;6195768;23;20028;-91
2021/04/26 12:35:49;;;;;;;2.72;2.10;;;8.80;69.80;;;;;;6196662;23;20000;-92
2021/04/26 12:38:15;;;;;;;3.28;2.08;;;8.90;71.40;;;;;;6197220;23;20068;-90
2021/04/26 12:40:49;;;;;;;2.22;2.03;;;9.00;71.90;;;;;;6224356;23;19996;-91
2021/04/26 12:43:15;;;;;;;2.03;1.83;;;9.20;71.90;;;;;;6198203;23;20408;-91
2021/04/26 12:45:45;;;;;;;2.55;2.10;;;9.40;73.80;;;;;;6197278;23;20084;-91
2021/04/26 12:51:35;;;;;;;2.13;1.90;;;9.60;68.20;;;;;;6223392;23;20068;-92
2021/04/26 12:57:56;;;;;;;;;;;;;;;;;;;;;
2021/04/26 13:00:46;;;;;;;2.35;1.90;;;10.00;71.60;;;;;;6228972;23;20031;-91
2021/04/26 13:03:31;;;;;;;1.58;1.48;;;10.50;71.20;;;;;;6196041;23;19996;-91
2021/04/26 13:06:15;;;;;;;2.85;1.90;;;11.10;73.70;;;;;;6198206;23;20009;-90
2021/04/26 13:08:46;;;;;;;2.88;2.38;;;11.60;67.30;;;;;;6198061;23;20027;-92
2021/04/26 13:14:35;;;;;;;1.77;1.67;;;12.40;68.60;;;;;;6220113;23;20022;-90
2021/04/26 13:21:00;;;;;;;1.85;1.70;;;12.80;67.90;;;;;;6229022;23;20494;-90
2021/04/26 13:23:49;;;;;;;2.53;2.10;;;12.90;57.80;;;;;;6226683;23;20013;-91
2021/04/26 13:26:23;;;;;;;2.30;1.75;;;12.90;65.90;;;;;;6201236;23;20009;-92
2021/04/26 13:29:00;;;;;;;2.30;1.95;;;13.00;66.90;;;;;;6202067;23;20083;-92
2021/04/26 13:31:36;;;;;;;1.77;1.67;;;12.90;65.20;;;;;;6197769;23;20066;-91
2021/04/26 13:34:09;;;;;;;2.45;1.70;;;12.70;63.10;;;;;;6175562;23;20079;-90
2021/04/26 13:36:41;;;;;;;2.55;2.15;;;12.40;65.00;;;;;;6227579;23;20405;-92
2021/04/26 13:40:10;;;;;;;1.63;1.52;;;12.10;66.00;;;;;;6201718;23;20452;-92
2021/04/26 13:42:54;;;;;;;3.00;2.10;;;11.90;66.10;;;;;;6196838;23;20495;-90
2021/04/26 13:45:30;;;;;;;4.57;2.67;;;11.90;68.90;;;;;;6151560;23;20013;-91
2021/04/26 13:48:05;;;;;;;2.88;2.20;;;11.90;65.90;;;;;;6221701;23;20008;-90
2021/04/26 13:50:55;;;;;;;3.55;2.30;;;11.40;64.50;;;;;;6196073;23;20004;-90
2021/04/26 13:53:57;;;;;;;;;;;;;;;;;;;;;
2021/04/26 13:56:27;;;;;;;2.65;2.00;;;10.70;66.70;;;;;;6221194;23;20020;-92
2021/04/26 14:02:23;;;;;;;2.75;1.85;;;11.70;73.20;;;;;;6164683;23;20087;-91
2021/04/26 14:04:59;;;;;;;2.50;2.15;;;13.10;73.20;;;;;;6157412;23;20495;-89
2021/04/26 14:07:27;;;;;;;2.38;1.90;;;14.30;70.90;;;;;;6159500;23;20139;-91
2021/04/26 14:10:00;;;;;;;1.80;1.70;;;15.30;73.00;;;;;;6164702;23;20307;-90
2021/04/26 14:12:29;;;;;;;3.50;1.92;;;16.10;69.20;;;;;;6140473;23;20013;-92
2021/04/26 14:17:49;;;;;;;1.80;1.70;;;17.00;58.70;;;;;;6157290;23;20337;-90
2021/04/26 14:20:25;;;;;;;1.95;1.60;;;17.40;63.70;;;;;;6160847;23;20001;-89
2021/04/26 14:22:52;;;;;;;2.47;1.73;;;17.90;63.10;;;;;;6136358;23;20410;-90
2021/04/26 14:25:26;;;;;;;1.80;1.70;;;17.90;58.60;;;;;;6161243;23;20005;-91
2021/04/26 14:27:57;;;;;;;1.95;1.85;;;17.80;60.90;;;;;;6160431;23;20002;-90
2021/04/26 14:30:30;;;;;;;2.35;1.75;;;18.00;60.70;;;;;;6159250;23;20009;-91
2021/04/26 14:33:01;;;;;;;2.25;2.05;;;18.10;60.50;;;;;;6159985;23;20071;-90
2021/04/26 14:35:29;;;;;;;1.88;1.50;;;17.90;59.30;;;;;;6165163;23;20048;-90
2021/04/26 14:38:01;;;;;;;2.00;1.80;;;17.50;58.90;;;;;;6161156;23;20002;-89